createdAt,value
2022-11-10T00:00:03.259Z,89.0
2022-11-10T00:15:02.691Z,89.4
2022-11-10T00:30:03.277Z,89.6
2022-11-10T00:45:02.564Z,89.6
2022-11-10T01:00:03.015Z,90.0
2022-11-10T01:15:02.457Z,90.2
2022-11-10T01:30:02.866Z,90.3
2022-11-10T01:45:02.293Z,90.7
2022-11-10T02:00:02.751Z,91.3
2022-11-10T02:15:03.305Z,91.7
2022-11-10T02:30:02.626Z,92.1
2022-11-10T02:45:03.069Z,92.1
2022-11-10T03:00:02.494Z,92.7
2022-11-10T03:15:02.910Z,92.9
2022-11-10T03:30:02.369Z,93.0
2022-11-10T03:45:02.798Z,93.1
2022-11-10T04:00:03.325Z,93.4
2022-11-10T04:15:02.662Z,93.6
2022-11-10T04:30:03.327Z,93.8
2022-11-10T04:45:02.551Z,94.2
2022-11-10T05:00:02.969Z,94.3
2022-11-10T05:15:02.432Z,94.5
2022-11-10T05:30:02.863Z,94.6
2022-11-10T05:45:02.344Z,94.6
2022-11-10T06:00:02.726Z,94.6
2022-11-10T06:15:03.351Z,94.5
2022-11-10T06:30:02.632Z,94.5
2022-11-10T06:45:03.070Z,94.5
2022-11-10T07:00:02.507Z,94.4
2022-11-10T07:15:02.930Z,94.4
2022-11-10T07:30:02.381Z,94.2
2022-11-10T07:45:02.819Z,93.9
2022-11-10T08:00:02.376Z,93.8
2022-11-10T08:15:02.691Z,93.6
2022-11-10T08:30:03.117Z,93.6
2022-11-10T08:45:02.560Z,93.2
2022-11-10T09:00:03.022Z,91.9
2022-11-10T09:15:02.434Z,88.5
2022-11-10T09:30:02.850Z,86.7
2022-11-10T09:45:02.388Z,82.0
2022-11-10T10:00:02.715Z,80.7
2022-11-10T10:15:03.403Z,82.1
2022-11-10T10:30:02.603Z,82.6
2022-11-10T10:45:03.135Z,81.9
2022-11-10T11:00:02.454Z,80.1
2022-11-10T11:15:02.893Z,78.1
2022-11-10T11:30:02.423Z,77.7
2022-11-10T11:45:02.783Z,77.3
2022-11-10T12:00:03.432Z,75.1
2022-11-10T12:15:02.647Z,73.3
2022-11-10T12:30:03.087Z,74.0
2022-11-10T12:45:02.521Z,73.4
2022-11-10T13:00:02.944Z,74.4
2022-11-10T13:15:02.447Z,73.8
2022-11-10T13:30:02.825Z,74.2
2022-11-10T13:45:03.454Z,74.5
2022-11-10T14:00:02.719Z,74.3
2022-11-10T14:15:03.154Z,73.8
2022-11-10T14:30:02.606Z,73.8
2022-11-10T14:45:03.013Z,72.4
2022-11-10T15:00:02.469Z,72.2
2022-11-10T15:15:02.905Z,72.9
2022-11-10T15:30:02.464Z,73.6
2022-11-10T15:45:02.765Z,74.6
2022-11-10T16:00:03.321Z,75.5
2022-11-10T16:15:02.657Z,75.8
2022-11-10T16:30:03.066Z,77.3
2022-11-10T16:45:02.541Z,78.2
2022-11-10T17:00:02.979Z,78.5
2022-11-10T17:15:02.507Z,79.7
2022-11-10T17:30:02.866Z,80.1
2022-11-10T17:45:02.501Z,80.5
2022-11-10T18:00:02.753Z,81.2
2022-11-10T18:15:03.208Z,81.2
2022-11-10T18:30:02.623Z,81.2
2022-11-10T18:45:03.062Z,80.9
2022-11-10T19:00:02.514Z,80.9
2022-11-10T19:15:02.946Z,80.8
2022-11-10T19:30:02.504Z,80.8
2022-11-10T19:45:02.808Z,81.4
2022-11-10T20:00:03.256Z,81.8
2022-11-10T20:15:02.692Z,81.9
2022-11-10T20:30:03.120Z,82.3
2022-11-10T20:45:02.577Z,82.0
2022-11-10T21:00:02.984Z,81.9
2022-11-10T21:15:02.550Z,82.2
2022-11-10T21:30:02.856Z,82.3
2022-11-10T21:45:02.465Z,82.5
2022-11-10T22:00:02.721Z,83.4
2022-11-10T22:15:03.160Z,84.0
2022-11-10T22:30:02.606Z,83.6
2022-11-10T22:45:03.040Z,83.9
2022-11-10T23:00:02.555Z,84.1
2022-11-10T23:15:01.915Z,84.6
2022-11-10T23:30:02.560Z,85.1
2022-11-10T23:45:02.820Z,85.7
